Home > Products > Valid Products > MTR

000
SAUS45 KABQ 302254
MTRTCS
METAR KTCS 302253Z AUTO 02005KT 10SM CLR 25/M07 A3020 RMK AO2 SLP166
T02501072 TSNO





000
SAUS45 KABQ 302254
MTRCQC
METAR KCQC 302253Z AUTO 12010KT 10SM CLR 17/M07 A3036 RMK AO2 SLP225
T01671067





000
SAUS45 KABQ 302253
MTRABQ
METAR KABQ 302252Z 18004KT 10SM CLR 22/M08 A3026 RMK AO2 SLP192
T02221083





000
SAUS45 KABQ 302154
MTRCQC
METAR KCQC 302153Z AUTO 16013KT 10SM CLR 17/M07 A3036 RMK AO2 SLP222
T01721067





000
SAUS45 KABQ 302154
MTRCQC
METAR KCQC 302153Z AUTO 16013KT 10SM CLR 17/M07 A3036 RMK AO2 SLP222
T01721067





000
SAUS45 KABQ 302154
MTRTCS
METAR KTCS 302153Z AUTO 05005KT 10SM CLR 25/M07 A3021 RMK AO2 SLP168
T02501072 TSNO





000
SAUS45 KABQ 302154
MTRTCS
METAR KTCS 302153Z AUTO 05005KT 10SM CLR 25/M07 A3021 RMK AO2 SLP168
T02501072 TSNO





000
SAUS45 KABQ 302153
MTRABQ
METAR KABQ 302152Z 20008KT 10SM CLR 22/M08 A3027 RMK AO2 SLP192
T02221083





000
SAUS45 KABQ 302153
MTRABQ
METAR KABQ 302152Z 20008KT 10SM CLR 22/M08 A3027 RMK AO2 SLP192
T02221083





000
SAUS45 KABQ 302054
MTRCQC
METAR KCQC 302053Z AUTO 12007KT 10SM CLR 17/M07 A3036 RMK AO2 SLP225
T01721067 56011





000
SAUS45 KABQ 302054
MTRTCS
METAR KTCS 302053Z AUTO 03008KT 10SM CLR 24/M08 A3022 RMK AO2 SLP169
T02441078 56022 TSNO





000
SAUS45 KABQ 302053
MTRABQ
METAR KABQ 302052Z 25006KT 10SM CLR 22/M09 A3028 RMK AO2 SLP196
T02171089 56020





000
SAUS45 KABQ 301954
MTRTCS
METAR KTCS 301953Z AUTO 04006G16KT 10SM CLR 24/M05 A3024 RMK AO2
SLP178 T02391050 TSNO





000
SAUS45 KABQ 301954
MTRCQC
METAR KCQC 301953Z AUTO VRB06G15KT 10SM CLR 17/M07 A3037 RMK AO2
SLP226 T01721072





000
SAUS45 KABQ 301953
MTRABQ
METAR KABQ 301952Z VRB03KT 10SM CLR 22/M09 A3030 RMK AO2 SLP204
T02171089





000
SAUS45 KABQ 301854
MTRTCS
METAR KTCS 301853Z AUTO 36008KT 10SM CLR 23/M05 A3027 RMK AO2 SLP187
T02281050 TSNO





000
SAUS45 KABQ 301854
MTRCQC
METAR KCQC 301853Z AUTO 09009G16KT 10SM CLR 16/M08 A3039 RMK AO2
SLP234 T01611078





000
SAUS45 KABQ 301853
MTRABQ
METAR KABQ 301852Z 03004KT 10SM CLR 19/M08 A3032 RMK AO2 SLP213
T01941078





000
SAUS45 KABQ 301754
MTRTCS
METAR KTCS 301753Z AUTO 01006KT 10SM CLR 21/M05 A3029 RMK AO2 SLP201
T02061050 10206 20078 50002 TSNO





000
SAUS45 KABQ 301754
MTRCQC
METAR KCQC 301753Z AUTO 07014KT 10SM CLR 16/M08 A3040 RMK AO2 SLP234
T01611083 10161 20033 50007





000
SAUS45 KABQ 301753
MTRABQ
METAR KABQ 301752Z 36010KT 10SM CLR 17/M09 A3035 RMK AO2 SLP222
T01671089 10167 20078 58001





000
SAUS45 KABQ 301654
MTRCQC
METAR KCQC 301653Z AUTO 09013KT 10SM CLR 14/M09 A3041 RMK AO2 SLP240
T01441094





000
SAUS45 KABQ 301654
MTRTCS
METAR KTCS 301653Z AUTO 03006KT 10SM CLR 19/M03 A3030 RMK AO2 SLP204
T01941028 TSNO





000
SAUS45 KABQ 301654
MTRTCS
METAR KTCS 301653Z AUTO 03006KT 10SM CLR 19/M03 A3030 RMK AO2 SLP204
T01941028 TSNO





000
SAUS45 KABQ 301654
MTRCQC
METAR KCQC 301653Z AUTO 09013KT 10SM CLR 14/M09 A3041 RMK AO2 SLP240
T01441094





000
SAUS45 KABQ 301652
MTRABQ
METAR KABQ 301652Z 34009KT 10SM CLR 14/M09 A3035 RMK AO2 SLP229
T01441094





000
SAUS45 KABQ 301652
MTRABQ
METAR KABQ 301652Z 34009KT 10SM CLR 14/M09 A3035 RMK AO2 SLP229
T01441094





000
SAUS45 KABQ 301554
MTRTCS
METAR KTCS 301553Z AUTO 02004KT 10SM CLR 17/01 A3030 RMK AO2 SLP205
T01720006 TSNO





000
SAUS45 KABQ 301554
MTRCQC
METAR KCQC 301553Z AUTO 09016KT 10SM CLR 14/M10 A3040 RMK AO2 SLP236
T01391100





000
SAUS45 KABQ 301552
MTRABQ
METAR KABQ 301552Z 34009KT 10SM CLR 12/M10 A3036 RMK AO2 SLP241
T01171100





000
SAUS45 KABQ 301454
MTRCQC
METAR KCQC 301453Z AUTO 06009KT 10SM CLR 13/M11 A3038 RMK AO2 SLP233
T01281111 53019





000
SAUS45 KABQ 301454
MTRTCS
METAR KTCS 301453Z AUTO 34003KT 9SM FEW001 14/02 A3029 RMK AO2
SLP205 T01390022 53016 TSNO





000
SAUS45 KABQ 301452
MTRABQ
METAR KABQ 301452Z 01007KT 10SM CLR 10/M10 A3035 RMK AO2 SLP232
T01001100 53017





000
SAUS45 KABQ 301446
MTRTCS
SPECI KTCS 301445Z AUTO 00000KT 3SM HZ FEW001 13/02 A3029 RMK AO2
T01330017 TSNO





000
SAUS45 KABQ 301438
MTRTCS
SPECI KTCS 301437Z AUTO 00000KT 1 1/4SM HZ FEW001 12/02 A3028 RMK
AO2 T01220022 TSNO





000
SAUS45 KABQ 301424
MTRTCS
SPECI KTCS 301423Z AUTO 28003KT 2SM HZ FEW001 11/02 A3028 RMK AO2
T01110017 TSNO





000
SAUS45 KABQ 301354
MTRTCS
METAR KTCS 301353Z AUTO 31003KT 10SM CLR 09/01 A3027 RMK AO2 SLP203
T00890011 TSNO





000
SAUS45 KABQ 301354
MTRCQC
METAR KCQC 301353Z AUTO 34004KT 10SM CLR 06/M12 A3036 RMK AO2 SLP237
T00611117





000
SAUS45 KABQ 301352
MTRABQ
METAR KABQ 301352Z 01007KT 10SM CLR 08/M11 A3032 RMK AO2 SLP221
T00831106





000
SAUS45 KABQ 301254
MTRTCS
METAR KTCS 301253Z AUTO 29003KT 10SM CLR 08/01 A3025 RMK AO2 SLP193
T00780011 TSNO





000
SAUS45 KABQ 301254
MTRCQC
METAR KCQC 301253Z AUTO 31006KT 10SM CLR 06/M12 A3033 RMK AO2 SLP231
T00561117





000
SAUS45 KABQ 301252
MTRABQ
METAR KABQ 301252Z 01007KT 10SM CLR 08/M11 A3031 RMK AO2 SLP216
T00781106





000
SAUS45 KABQ 301154
MTRCQC
METAR KCQC 301153Z AUTO 30012KT 10SM CLR 05/M12 A3031 RMK AO2 SLP209
T00501117 10089 20039 53004





000
SAUS45 KABQ 301154
MTRTCS
METAR KTCS 301153Z AUTO 34004KT 10SM CLR 10/01 A3023 RMK AO2 SLP181
T01000011 10133 20094 53004 TSNO





000
SAUS45 KABQ 301152
MTRABQ
METAR KABQ 301152Z 35010KT 10SM CLR 10/M11 A3029 RMK AO2 SLP203
T01001111 10150 20094 53007





000
SAUS45 KABQ 301054
MTRCQC
METAR KCQC 301053Z AUTO 30013KT 10SM CLR 05/M12 A3030 RMK AO2 SLP198
T00501122





000
SAUS45 KABQ 301054
MTRCQC
METAR KCQC 301053Z AUTO 30013KT 10SM CLR 05/M12 A3030 RMK AO2 SLP198
T00501122





000
SAUS45 KABQ 301054
MTRTCS
METAR KTCS 301053Z AUTO 30007KT 10SM CLR 10/02 A3022 RMK AO2 SLP173
T01000017 TSNO





000
SAUS45 KABQ 301054
MTRTCS
METAR KTCS 301053Z AUTO 30007KT 10SM CLR 10/02 A3022 RMK AO2 SLP173
T01000017 TSNO





000
SAUS45 KABQ 301052
MTRABQ
METAR KABQ 301052Z 02008KT 10SM CLR 09/M10 A3028 RMK AO2 SLP199
T00941100





000
SAUS45 KABQ 301052
MTRABQ
METAR KABQ 301052Z 02008KT 10SM CLR 09/M10 A3028 RMK AO2 SLP199
T00941100





000
SAUS45 KABQ 300954
MTRCQC
METAR KCQC 300953Z AUTO 29012KT 10SM CLR 06/M13 A3029 RMK AO2 SLP192
T00561128





000
SAUS45 KABQ 300954
MTRTCS
METAR KTCS 300953Z AUTO 30004KT 10SM CLR 11/02 A3022 RMK AO2 SLP174
T01060017 TSNO





000
SAUS45 KABQ 300952
MTRABQ
METAR KABQ 300952Z 02009KT 10SM CLR 11/M10 A3028 RMK AO2 SLP195
T01061100





000
SAUS45 KABQ 300854
MTRTCS
METAR KTCS 300853Z AUTO 34005KT 10SM CLR 12/02 A3022 RMK AO2 SLP174
T01170022 53002 TSNO





000
SAUS45 KABQ 300854
MTRCQC
METAR KCQC 300853Z AUTO 30012KT 10SM CLR 05/M13 A3029 RMK AO2 SLP192
T00501133 53006





000
SAUS45 KABQ 300852
MTRABQ
METAR KABQ 300852Z 35009KT 10SM CLR 12/M10 A3027 RMK AO2 SLP194
T01171100 51002





000
SAUS45 KABQ 300754
MTRTCS
METAR KTCS 300753Z AUTO 28008KT 10SM CLR 12/02 A3021 RMK AO2 SLP172
T01170022 TSNO





000
SAUS45 KABQ 300754
MTRCQC
METAR KCQC 300753Z AUTO 30009KT 10SM CLR 06/M13 A3029 RMK AO2 SLP192
T00561133





000
SAUS45 KABQ 300752
MTRABQ
METAR KABQ 300752Z 05003KT 10SM CLR 11/M09 A3027 RMK AO2 SLP197
T01061089





000
SAUS45 KABQ 300654
MTRTCS
METAR KTCS 300653Z AUTO 29009KT 10SM CLR 13/02 A3021 RMK AO2 SLP169
T01330022 402390083 TSNO





000
SAUS45 KABQ 300654
MTRCQC
METAR KCQC 300653Z AUTO 30015KT 10SM CLR 07/M12 A3027 RMK AO2 SLP184
T00671122 402060022





000
SAUS45 KABQ 300652
MTRABQ
METAR KABQ 300652Z 33006KT 10SM CLR 13/M09 A3027 RMK AO2 SLP195
T01281094 402280067





000
SAUS45 KABQ 300554
MTRCQC
METAR KCQC 300553Z AUTO 30014KT 10SM CLR 08/M12 A3027 RMK AO2 SLP184
T00781117 10161 20067 58002





000
SAUS45 KABQ 300554
MTRTCS
METAR KTCS 300553Z AUTO 28008KT 10SM CLR 13/02 A3021 RMK AO2 SLP175
T01280022 10233 20128 50005 TSNO





000
SAUS45 KABQ 300552
MTRABQ
METAR KABQ 300552Z 30005KT 10SM CLR 15/M10 A3026 RMK AO2 SLP193
T01501100 10217 20128 50005





000
SAUS45 KABQ 300454
MTRTCS
METAR KTCS 300453Z AUTO 30007KT 10SM CLR 14/02 A3022 RMK AO2 SLP178
T01390022 TSNO





000
SAUS45 KABQ 300454
MTRCQC
METAR KCQC 300453Z AUTO 29011KT 10SM CLR 08/M11 A3027 RMK AO2 SLP190
T00781111





000
SAUS45 KABQ 300454
MTRTCS
METAR KTCS 300453Z AUTO 30007KT 10SM CLR 14/02 A3022 RMK AO2 SLP178
T01390022 TSNO





000
SAUS45 KABQ 300454
MTRCQC
METAR KCQC 300453Z AUTO 29011KT 10SM CLR 08/M11 A3027 RMK AO2 SLP190
T00781111





000
SAUS45 KABQ 300452
MTRABQ
METAR KABQ 300452Z 35005KT 10SM CLR 15/M09 A3027 RMK AO2 SLP200
T01501094





000
SAUS45 KABQ 300452
MTRABQ
METAR KABQ 300452Z 35005KT 10SM CLR 15/M09 A3027 RMK AO2 SLP200
T01501094





000
SAUS45 KABQ 300354
MTRCQC
METAR KCQC 300353Z AUTO 27013KT 10SM CLR 08/M09 A3028 RMK AO2 SLP198
T00781094





000
SAUS45 KABQ 300354
MTRTCS
METAR KTCS 300353Z AUTO 30008KT 10SM CLR 14/02 A3021 RMK AO2 SLP176
T01440017 TSNO





000
SAUS45 KABQ 300353
MTRABQ
METAR KABQ 300352Z 00000KT 10SM CLR 13/M09 A3026 RMK AO2 SLP205
T01281089





000
SAUS45 KABQ 300254
MTRCQC
METAR KCQC 300253Z AUTO 27008KT 10SM CLR 08/M10 A3028 RMK AO2 SLP207
T00781100 51007





000
SAUS45 KABQ 300254
MTRTCS
METAR KTCS 300253Z AUTO 29006KT 10SM CLR 16/00 A3020 RMK AO2 SLP174
T01560000 53008 TSNO





000
SAUS45 KABQ 300253
MTRABQ
METAR KABQ 300252Z 33005KT 10SM CLR 17/M11 A3025 RMK AO2 SLP195
T01721106 51013





000
SAUS45 KABQ 300154
MTRCQC
METAR KCQC 300153Z AUTO 28013KT 10SM CLR 10/M11 A3027 RMK AO2 SLP214
T01001106





000
SAUS45 KABQ 300154
MTRTCS
METAR KTCS 300153Z AUTO 00000KT 10SM CLR 18/M01 A3019 RMK AO2 SLP171
T01831011 TSNO





000
SAUS45 KABQ 300153
MTRABQ
METAR KABQ 300152Z 34007KT 10SM CLR 19/M11 A3023 RMK AO2 SLP190
T01891106





000
SAUS45 KABQ 300054
MTRTCS
METAR KTCS 300053Z AUTO 00000KT 10SM CLR 21/M02 A3018 RMK AO2 SLP166
T02111022 TSNO





000
SAUS45 KABQ 300054
MTRCQC
METAR KCQC 300053Z AUTO 24006KT 10SM CLR 10/M13 A3027 RMK AO2 SLP218
T01001133





000
SAUS45 KABQ 300053
MTRABQ
METAR KABQ 300052Z 33006KT 10SM CLR 20/M09 A3022 RMK AO2 SLP184
T02001094





000
SAUS45 KABQ 292354
MTRCQC
METAR KCQC 292353Z AUTO 30010KT 10SM CLR 16/M13 A3025 RMK AO2 SLP191
T01611133 10206 20161 56003





000
SAUS45 KABQ 292354
MTRTCS
METAR KTCS 292353Z AUTO 20003KT 10SM CLR 23/M03 A3017 RMK AO2 SLP158
T02331028 10239 20189 56004 TSNO





000
SAUS45 KABQ 292353
MTRABQ
METAR KABQ 292352Z 23004KT 10SM CLR 22/M07 A3020 RMK AO2 SLP176
T02171072 10228 20172 56006





000
SAUS45 KABQ 292254
MTRCQC
METAR KCQC 292253Z AUTO 31014KT 10SM CLR 19/M14 A3025 RMK AO2 SLP182
T01941144





000
SAUS45 KABQ 292254
MTRCQC
METAR KCQC 292253Z AUTO 31014KT 10SM CLR 19/M14 A3025 RMK AO2 SLP182
T01941144





000
SAUS45 KABQ 292254
MTRTCS
METAR KTCS 292253Z AUTO 00000KT 6SM HZ FEW002 24/M02 A3017 RMK AO2
SLP154 T02391022 TSNO





000
SAUS45 KABQ 292254
MTRTCS
METAR KTCS 292253Z AUTO 00000KT 6SM HZ FEW002 24/M02 A3017 RMK AO2
SLP154 T02391022 TSNO





000
SAUS45 KABQ 292253
MTRABQ
METAR KABQ 292252Z 00000KT 10SM CLR 23/M07 A3020 RMK AO2 SLP171
T02281072





000
SAUS45 KABQ 292253
MTRABQ
METAR KABQ 292252Z 00000KT 10SM CLR 23/M07 A3020 RMK AO2 SLP171
T02281072





000
SAUS45 KABQ 292206
MTRTCS
SPECI KTCS 292204Z AUTO 15006KT 5SM HZ FEW001 24/M01 A3017 RMK AO2
T02391006 TSNO





000
SAUS45 KABQ 292155
MTRTCS
METAR KTCS 292153Z AUTO 15004KT 10SM CLR 23/01 A3017 RMK AO2 SLP155
T02330006 TSNO





000
SAUS45 KABQ 292154
MTRCQC
METAR KCQC 292153Z AUTO 29011KT 10SM CLR 20/M15 A3025 RMK AO2 SLP176
T02001150





000
SAUS45 KABQ 292153
MTRABQ
METAR KABQ 292152Z 00000KT 10SM CLR 22/M06 A3021 RMK AO2 SLP176
T02221056





000
SAUS45 KABQ 292054
MTRCQC
METAR KCQC 292053Z AUTO 30016G21KT 10SM CLR 20/M12 A3026 RMK AO2
SLP180 T02001122 56016





000
SAUS45 KABQ 292054
MTRTCS
METAR KTCS 292053Z AUTO 00000KT 10SM CLR 23/02 A3018 RMK AO2 SLP158
T02280022 56022 TSNO





000
SAUS45 KABQ 292053
MTRABQ
METAR KABQ 292052Z 23004KT 10SM CLR 21/M06 A3022 RMK AO2 SLP181
T02111056 56023





000
SAUS45 KABQ 291954
MTRCQC
METAR KCQC 291953Z AUTO 30014G22KT 10SM CLR 20/M09 A3027 RMK AO2
SLP182 T02001094





000
SAUS45 KABQ 291954
MTRTCS
METAR KTCS 291953Z AUTO VRB04KT 10SM CLR 22/03 A3020 RMK AO2 SLP169
T02170028 TSNO





000
SAUS45 KABQ 291953
MTRABQ
METAR KABQ 291952Z 00000KT 10SM CLR 21/M06 A3025 RMK AO2 SLP187
T02061056





000
SAUS45 KABQ 291854
MTRTCS
METAR KTCS 291853Z AUTO 00000KT 10SM CLR 21/04 A3024 RMK AO2 SLP184
T02060039 TSNO





000
SAUS45 KABQ 291854
MTRCQC
METAR KCQC 291853Z AUTO 28014KT 10SM CLR 19/M08 A3030 RMK AO2 SLP193
T01891083





000
SAUS45 KABQ 291853
MTRABQ
METAR KABQ 291852Z 05004KT 10SM CLR 19/M08 A3028 RMK AO2 SLP199
T01941078





000
SAUS45 KABQ 291754
MTRCQC
METAR KCQC 291753Z AUTO 28015G20KT 10SM CLR 18/M08 A3032 RMK AO2
SLP204 T01781078 10178 20022 58000





000
SAUS45 KABQ 291754
MTRTCS
METAR KTCS 291753Z AUTO 00000KT 10SM CLR 19/04 A3026 RMK AO2 SLP189
T01940039 10200 20083 58000 TSNO





000
SAUS45 KABQ 291753
MTRABQ
METAR KABQ 291752Z 35006KT 10SM CLR 17/M09 A3030 RMK AO2 SLP211
T01721089 10172 20078 58002





000
SAUS45 KABQ 291654
MTRCQC
METAR KCQC 291653Z AUTO 31010KT 10SM CLR 15/M09 A3033 RMK AO2 SLP215
T01501094





000
SAUS45 KABQ 291654
MTRTCS
METAR KTCS 291653Z AUTO 08004KT 10SM CLR 17/03 A3027 RMK AO2 SLP194
T01720033 TSNO





000
SAUS45 KABQ 291653
MTRABQ
METAR KABQ 291652Z 34007KT 10SM CLR 14/M08 A3031 RMK AO2 SLP219
T01391083





000
SAUS45 KABQ 291554
MTRCQC
METAR KCQC 291553Z AUTO 29008KT 10SM CLR 13/M11 A3033 RMK AO2 SLP212
T01281106





000
SAUS45 KABQ 291554
MTRTCS
METAR KTCS 291553Z AUTO 04009KT 10SM CLR 16/03 A3027 RMK AO2 SLP199
T01560033 TSNO





000
SAUS45 KABQ 291553
MTRABQ
METAR KABQ 291552Z 34008KT 10SM CLR 12/M07 A3032 RMK AO2 SLP225
T01221067





000
SAUS45 KABQ 291454
MTRCQC
METAR KCQC 291453Z AUTO 30007KT 10SM CLR 09/M09 A3032 RMK AO2 SLP215
T00941094 51010





000
SAUS45 KABQ 291454
MTRTCS
METAR KTCS 291453Z AUTO 00000KT 10SM CLR 13/04 A3026 RMK AO2 SLP195
T01330039 53014 TSNO





000
SAUS45 KABQ 291453
MTRABQ
METAR KABQ 291452Z 01009KT 10SM CLR 10/M07 A3031 RMK AO2 SLP220
T01001067 53011





000
SAUS45 KABQ 291354
MTRTCS
METAR KTCS 291353Z AUTO 31006KT 10SM CLR 10/02 A3024 RMK AO2 SLP190
T01000022 TSNO





000
SAUS45 KABQ 291354
MTRCQC
METAR KCQC 291353Z AUTO 30007KT 10SM CLR 04/M08 A3031 RMK AO2 SLP224
T00391078





000
SAUS45 KABQ 291352
MTRABQ
METAR KABQ 291352Z 36008KT 10SM CLR 08/M06 A3030 RMK AO2 SLP218
T00831056





000
SAUS45 KABQ 291254
MTRCQC
METAR KCQC 291253Z AUTO 27010KT 10SM CLR 02/M07 A3029 RMK AO2 SLP228
T00221072





000
SAUS45 KABQ 291254
MTRTCS
METAR KTCS 291253Z AUTO 31007KT 10SM CLR 08/03 A3023 RMK AO2 SLP184
T00830028 TSNO





000
SAUS45 KABQ 291253
MTRABQ
METAR KABQ 291252Z 02007KT 10SM CLR 08/M05 A3028 RMK AO2 SLP209
T00831050





000
SAUS45 KABQ 291158 COR
MTRCQC
METAR KCQC 291153Z AUTO 27011KT 10SM CLR 04/M06 A3028 RMK AO2 SLP205
T00391061 10072 20033 53002





000
SAUS45 KABQ 291156 COR
MTRCQC
METAR KCQC 291153Z AUTO 27011KT 10SM CLR 04/M06 A3028 RMK AO2 SLP205
T00391061 10072 20033 53002





000
SAUS45 KABQ 291155 COR
MTRCQC
METAR KCQC 291153Z AUTO 27011KT 10SM CLR 04/M06 A3028 RMK AO2 SLP205
T00391061 10072 20033 53002





000
SAUS45 KABQ 291155
MTRTCS
METAR KTCS 291153Z AUTO 34004KT 10SM CLR 10/03 A3021 RMK AO2 SLP175
T01000033 10133 20089 53005 TSNO





000
SAUS45 KABQ 291154
MTRCQC
METAR KCQC 291153Z AUTO 27011KT 10SM CLR 04/M06 A3028 RMK AO2 SLP205
T00391061 10072 20033 53002





000
SAUS45 KABQ 291153
MTRABQ
METAR KABQ 291152Z 36004KT 10SM CLR 08/M06 A3027 RMK AO2 SLP202
T00831056 10128 20067 53006





000
SAUS45 KABQ 291054
MTRTCS
METAR KTCS 291053Z AUTO 32007KT 10SM CLR 11/03 A3020 RMK AO2 SLP166
T01110028 TSNO





000
SAUS45 KABQ 291054
MTRCQC
METAR KCQC 291053Z AUTO 24008KT 10SM CLR 04/M06 A3027 RMK AO2 SLP193
T00441056





000
SAUS45 KABQ 291053
MTRABQ
METAR KABQ 291052Z 35008KT 10SM CLR 09/M05 A3026 RMK AO2 SLP195
T00941050





000
SAUS45 KABQ 290954
MTRCQC
METAR KCQC 290953Z AUTO 29009KT 10SM CLR 06/M05 A3027 RMK AO2 SLP188
T00561050





000
SAUS45 KABQ 290954
MTRTCS
METAR KTCS 290953Z AUTO 29006KT 10SM CLR 11/03 A3020 RMK AO2 SLP166
T01110028 TSNO





000
SAUS45 KABQ 290953
MTRABQ
METAR KABQ 290952Z 29003KT 10SM CLR 08/M02 A3025 RMK AO2 SLP196
T00831022





000
SAUS45 KABQ 290854
MTRCQC
METAR KCQC 290853Z AUTO 26008KT 10SM CLR 06/M04 A3028 RMK AO2 SLP191
T00561044 58001





000
SAUS45 KABQ 290854
MTRTCS
METAR KTCS 290853Z AUTO 30009KT 10SM CLR 12/03 A3020 RMK AO2 SLP165
T01220033 53002 TSNO





000
SAUS45 KABQ 290853
MTRABQ
METAR KABQ 290852Z 00000KT 10SM CLR 09/M03 A3025 RMK AO2 SLP192
T00941033 53004





000
SAUS45 KABQ 290755
MTRCQC
METAR KCQC 290753Z AUTO 26008KT 10SM CLR 06/M05 A3028 RMK AO2 SLP192
T00611050





000
SAUS45 KABQ 290754
MTRTCS
METAR KTCS 290753Z AUTO 31006KT 10SM CLR 11/03 A3019 RMK AO2 SLP168
T01110033 TSNO





000
SAUS45 KABQ 290753
MTRABQ
METAR KABQ 290752Z 01006KT 10SM CLR 11/M04 A3024 RMK AO2 SLP191
T01111044





000
SAUS45 KABQ 290654
MTRTCS
METAR KTCS 290653Z AUTO 30006KT 10SM CLR 11/04 A3019 RMK AO2 SLP169
T01110039 402330089 TSNO





000
SAUS45 KABQ 290654
MTRCQC
METAR KCQC 290653Z AUTO 25006KT 10SM CLR 07/M05 A3028 RMK AO2 SLP195
T00671050 401831006





000
SAUS45 KABQ 290652
MTRABQ
METAR KABQ 290652Z 05003KT 10SM CLR 12/M02 A3024 RMK AO2 SLP190
T01171022 402110078





000
SAUS45 KABQ 290554
MTRTCS
METAR KTCS 290553Z AUTO 32004KT 10SM CLR 13/04 A3019 RMK AO2 SLP167
T01330039 10222 20122 51012 TSNO





000
SAUS45 KABQ 290554
MTRCQC
METAR KCQC 290553Z AUTO 28004KT 10SM CLR 07/M04 A3028 RMK AO2 SLP201
T00671044 10150 20056 51005





000
SAUS45 KABQ 290552
MTRABQ
METAR KABQ 290552Z 08004KT 10SM CLR 13/M02 A3024 RMK AO2 SLP194
T01281022 10200 20122 51009





000
SAUS45 KABQ 290454
MTRTCS
METAR KTCS 290453Z AUTO 00000KT 10SM CLR 14/04 A3018 RMK AO2 SLP165
T01440039 TSNO





000
SAUS45 KABQ 290454
MTRCQC
METAR KCQC 290453Z AUTO 27008KT 10SM CLR 06/M05 A3028 RMK AO2 SLP209
T00611050





000
SAUS45 KABQ 290454
MTRTCS
METAR KTCS 290453Z AUTO 00000KT 10SM CLR 14/04 A3018 RMK AO2 SLP165
T01440039 TSNO





000
SAUS45 KABQ 290454
MTRCQC
METAR KCQC 290453Z AUTO 27008KT 10SM CLR 06/M05 A3028 RMK AO2 SLP209
T00611050





000
SAUS45 KABQ 290452
MTRABQ
METAR KABQ 290452Z 06003KT 10SM CLR 13/M02 A3023 RMK AO2 SLP196
T01331017





000
SAUS45 KABQ 290355
MTRTCS
METAR KTCS 290353Z AUTO 11003KT 10SM CLR 14/04 A3017 RMK AO2 SLP165
T01440044 TSNO





000
SAUS45 KABQ 290354
MTRCQC
METAR KCQC 290353Z AUTO 28006KT 10SM CLR 09/M07 A3027 RMK AO2 SLP208
T00891067





000
SAUS45 KABQ 290353
MTRABQ
METAR KABQ 290352Z 07003KT 10SM CLR 13/M01 A3022 RMK AO2 SLP195
T01331011





000
SAUS45 KABQ 290254
MTRCQC
METAR KCQC 290253Z AUTO 27005KT 10SM CLR 11/M07 A3026 RMK AO2 SLP207
T01061072 51014





000
SAUS45 KABQ 290254
MTRTCS
METAR KTCS 290253Z AUTO 15007KT 10SM CLR 17/03 A3015 RMK AO2 SLP156
T01670033 51011 TSNO





000
SAUS45 KABQ 290253
MTRABQ
METAR KABQ 290252Z 04003KT 10SM CLR 16/M01 A3020 RMK AO2 SLP187
T01611011 53014





000
SAUS45 KABQ 290154
MTRCQC
METAR KCQC 290153Z AUTO 24003KT 10SM CLR 12/M07 A3025 RMK AO2 SLP209
T01171072





000
SAUS45 KABQ 290154
MTRTCS
METAR KTCS 290153Z AUTO 15004KT 10SM CLR 19/03 A3014 RMK AO2 SLP155
T01890033 TSNO





000
SAUS45 KABQ 290153
MTRABQ
METAR KABQ 290152Z 00000KT 10SM FEW100 17/M01 A3019 RMK AO2 SLP180
T01671011





000
SAUS45 KABQ 290055
MTRTCS
METAR KTCS 290053Z AUTO 19005KT 10SM CLR 20/03 A3012 RMK AO2 SLP146
T02000028 TSNO





000
SAUS45 KABQ 290054
MTRCQC
METAR KCQC 290053Z AUTO 27006KT 10SM CLR 10/M07 A3023 RMK AO2 SLP211
T01001067





000
SAUS45 KABQ 290053
MTRABQ
METAR KABQ 290052Z 18003KT 10SM FEW090 18/M01 A3016 RMK AO2 SLP166
T01831011





000
SAUS45 KABQ 282358 COR
MTRCQC
METAR KCQC 282353Z AUTO 30013KT 10SM CLR 15/M04 A3021 RMK AO2 SLP189
T01501044 10183 20139 53005





000
SAUS45 KABQ 282356 COR
MTRCQC
METAR KCQC 282353Z AUTO 30013KT 10SM CLR 15/M04 A3021 RMK AO2 SLP189
T01501044 10183 20139 53005





000
SAUS45 KABQ 282355 COR
MTRCQC
METAR KCQC 282353Z AUTO 30013KT 10SM CLR 15/M04 A3021 RMK AO2 SLP189
T01501044 10183 20139 53005





000
SAUS45 KABQ 282354
MTRTCS
METAR KTCS 282353Z AUTO 18006KT 10SM CLR 22/02 A3011 RMK AO2 SLP138
T02220022 10233 20178 53000 TSNO





000
SAUS45 KABQ 282354
MTRCQC
METAR KCQC 282353Z AUTO 30013KT 10SM CLR 15/M04 A3021 RMK AO2 SLP189
T01501044 10183 20139 53005





000
SAUS45 KABQ 282353
MTRABQ
METAR KABQ 282352Z 16003KT 10SM FEW090 20/M02 A3016 RMK AO2 SLP159
T02001022 10211 20133 55002





000
SAUS45 KABQ 282254
MTRTCS
METAR KTCS 282253Z AUTO VRB05KT 10SM CLR 23/02 A3011 RMK AO2 SLP136
T02280017 TSNO





000
SAUS45 KABQ 282254
MTRCQC
METAR KCQC 282253Z AUTO 29012KT 10SM CLR 17/M04 A3020 RMK AO2 SLP182
T01721039





000
SAUS45 KABQ 282253
MTRABQ
METAR KABQ 282252Z 00000KT 10SM FEW090 21/M02 A3015 RMK AO2 SLP154
T02061022





000
SAUS45 KABQ 282154
MTRCQC
METAR KCQC 282153Z AUTO 28014G20KT 10SM CLR 18/M04 A3019 RMK AO2
SLP176 T01831039





000
SAUS45 KABQ 282154
MTRTCS
METAR KTCS 282153Z AUTO 19007KT 10SM CLR 23/01 A3010 RMK AO2 SLP131
T02280011 TSNO





000
SAUS45 KABQ 282153
MTRABQ
METAR KABQ 282152Z 07004KT 10SM FEW090 20/M03 A3015 RMK AO2 SLP154
T02001033





000
SAUS45 KABQ 282058 COR
MTRCQC
METAR KCQC 282053Z AUTO 29019G26KT 10SM CLR 17/M03 A3019 RMK AO2 PK
WND 30026/2049 SLP173 T01721033 56016





000
SAUS45 KABQ 282056 COR
MTRCQC
METAR KCQC 282053Z AUTO 29019G26KT 10SM CLR 17/M03 A3019 RMK AO2 PK
WND 30026/2049 SLP173 T01721033 56016





000
SAUS45 KABQ 282055 COR
MTRCQC
METAR KCQC 282053Z AUTO 29019G26KT 10SM CLR 17/M03 A3019 RMK AO2 PK
WND 30026/2049 SLP173 T01721033 56016





000
SAUS45 KABQ 282054
MTRCQC
METAR KCQC 282053Z AUTO 29019G26KT 10SM CLR 17/M03 A3019 RMK AO2 PK
WND 30026/2049 SLP173 T01721033 56016





000
SAUS45 KABQ 282054
MTRTCS
METAR KTCS 282053Z AUTO 19004KT 10SM CLR 22/M01 A3011 RMK AO2 SLP133
T02221006 58024 TSNO





000
SAUS45 KABQ 282053
MTRABQ
METAR KABQ 282052Z 35003KT 10SM FEW090 FEW160 20/M03 A3016 RMK AO2
SLP157 ACSL S-SW T02001033 58022





000
SAUS45 KABQ 281954
MTRCQC
METAR KCQC 281953Z AUTO 27017G23KT 10SM CLR 17/M04 A3021 RMK AO2
SLP172 T01721044





000
SAUS45 KABQ 281954
MTRTCS
METAR KTCS 281953Z AUTO VRB03KT 10SM CLR 21/01 A3014 RMK AO2 SLP144
T02060011 TSNO





000
SAUS45 KABQ 281953
MTRABQ
METAR KABQ 281952Z 26003KT 10SM FEW180 18/M04 A3019 RMK AO2 SLP172
CCSL W-NW T01781039





000
SAUS45 KABQ 281854
MTRTCS
METAR KTCS 281853Z AUTO VRB04KT 10SM CLR 19/02 A3017 RMK AO2 SLP156
T01940017 TSNO





000
SAUS45 KABQ 281854
MTRCQC
METAR KCQC 281853Z AUTO 26009G16KT 10SM CLR 15/M05 A3024 RMK AO2
SLP185 T01501050





000
SAUS45 KABQ 281853
MTRABQ
METAR KABQ 281852Z VRB04KT 10SM FEW170 17/M03 A3022 RMK AO2 SLP185
T01671028





000
SAUS45 KABQ 281754
MTRCQC
METAR KCQC 281753Z AUTO 30006KT 10SM CLR 13/M06 A3025 RMK AO2 SLP194
T01331056 10133 21006 58003





000
SAUS45 KABQ 281754
MTRTCS
METAR KTCS 281753Z AUTO 36004KT 10SM CLR 18/03 A3019 RMK AO2 SLP163
T01830033 10183 20089 50000 TSNO





000
SAUS45 KABQ 281753
MTRABQ
METAR KABQ 281752Z 00000KT 10SM SCT170 BKN230 13/M01 A3024 RMK AO2
SLP198 T01331011 10139 20078 58001





000
SAUS45 KABQ 281654
MTRCQC
METAR KCQC 281653Z AUTO 22006KT 10SM CLR 11/M02 A3026 RMK AO2 SLP197
T01061022





000
SAUS45 KABQ 281654
MTRTCS
METAR KTCS 281653Z AUTO 03006KT 10SM CLR 16/03 A3021 RMK AO2 SLP172
T01610028 TSNO





000
SAUS45 KABQ 281654
MTRCQC
METAR KCQC 281653Z AUTO 22006KT 10SM CLR 11/M02 A3026 RMK AO2 SLP197
T01061022





000
SAUS45 KABQ 281654
MTRTCS
METAR KTCS 281653Z AUTO 03006KT 10SM CLR 16/03 A3021 RMK AO2 SLP172
T01610028 TSNO





000
SAUS45 KABQ 281653
MTRABQ
METAR KABQ 281652Z 34003KT 10SM SCT180 BKN230 12/M01 A3025 RMK AO2
SLP199 T01221006





000
SAUS45 KABQ 281653
MTRABQ
METAR KABQ 281652Z 34003KT 10SM SCT180 BKN230 12/M01 A3025 RMK AO2
SLP199 T01221006





000
SAUS45 KABQ 281554
MTRCQC
METAR KCQC 281553Z AUTO 19009KT 10SM CLR 08/M03 A3026 RMK AO2 SLP205
T00781033





000
SAUS45 KABQ 281554
MTRTCS
METAR KTCS 281553Z AUTO 02007KT 10SM CLR 14/03 A3020 RMK AO2 SLP173
T01440028 TSNO





000
SAUS45 KABQ 281554
MTRTCS
METAR KTCS 281553Z AUTO 02007KT 10SM CLR 14/03 A3020 RMK AO2 SLP173
T01440028 TSNO





000
SAUS45 KABQ 281554
MTRCQC
METAR KCQC 281553Z AUTO 19009KT 10SM CLR 08/M03 A3026 RMK AO2 SLP205
T00781033





000
SAUS45 KABQ 281553
MTRABQ
METAR KABQ 281552Z 34006KT 10SM SCT170 BKN220 09/M01 A3025 RMK AO2
SLP203 T00941006





000
SAUS45 KABQ 281553
MTRABQ
METAR KABQ 281552Z 34006KT 10SM SCT170 BKN220 09/M01 A3025 RMK AO2
SLP203 T00941006





000
SAUS45 KABQ 281454
MTRTCS
METAR KTCS 281453Z AUTO 02008KT 10SM CLR 13/02 A3019 RMK AO2 SLP169
T01280022 53020 TSNO





000
SAUS45 KABQ 281454
MTRCQC
METAR KCQC 281453Z AUTO 18011KT 10SM CLR 05/M04 A3026 RMK AO2 SLP210
T00501044 53010





000
SAUS45 KABQ 281453
MTRABQ
METAR KABQ 281452Z 35006KT 10SM FEW140 BKN200 08/M01 A3024 RMK AO2
SLP199 T00831006 53016





000
SAUS45 KABQ 281354
MTRTCS
METAR KTCS 281353Z AUTO 34005KT 10SM CLR 09/01 A3016 RMK AO2 SLP163
T00940011 TSNO





000
SAUS45 KABQ 281354
MTRCQC
METAR KCQC 281353Z AUTO 20005KT 10SM CLR 02/M05 A3024 RMK AO2 SLP206
T00171050





000
SAUS45 KABQ 281353
MTRABQ
METAR KABQ 281352Z 36007KT 10SM BKN190 08/00 A3022 RMK AO2 SLP187
T00830000





000
SAUS45 KABQ 281254
MTRTCS
METAR KTCS 281253Z AUTO 34006KT 10SM CLR 09/01 A3014 RMK AO2 SLP150
T00940011 TSNO





000
SAUS45 KABQ 281254
MTRCQC
METAR KCQC 281253Z AUTO 15005KT 10SM CLR 00/M06 A3023 RMK AO2 SLP201
T00001056





000
SAUS45 KABQ 281253
MTRABQ
METAR KABQ 281252Z 36007KT 10SM SCT170 BKN220 09/M01 A3020 RMK AO2
SLP178 T00891006





000
SAUS45 KABQ 281154
MTRTCS
METAR KTCS 281153Z AUTO 33006KT 10SM CLR 11/01 A3012 RMK AO2 SLP137
T01110006 10161 20089 53006 TSNO





000
SAUS45 KABQ 281154
MTRCQC
METAR KCQC 281153Z AUTO 14004KT 10SM CLR 00/M06 A3022 RMK AO2 SLP190
T00001056 10056 21006 53002





000
SAUS45 KABQ 281153
MTRABQ
METAR KABQ 281152Z 03006KT 10SM SCT200 09/M02 A3019 RMK AO2 SLP166
T00941017 10128 20094 51011





000
SAUS45 KABQ 281054
MTRCQC
METAR KCQC 281053Z AUTO 13004KT 10SM CLR M01/M06 A3022 RMK AO2
SLP185 T10061056





000
SAUS45 KABQ 281054
MTRTCS
METAR KTCS 281053Z AUTO 31005KT 10SM CLR 10/02 A3010 RMK AO2 SLP132
T01000017 TSNO





000
SAUS45 KABQ 281053
MTRABQ
METAR KABQ 281052Z 02004KT 10SM FEW080 BKN210 11/M04 A3017 RMK AO2
SLP157 T01111039





000
SAUS45 KABQ 280954
MTRTCS
METAR KTCS 280953Z AUTO 36005KT 10SM CLR 12/02 A3010 RMK AO2 SLP129
T01220022 TSNO





000
SAUS45 KABQ 280954
MTRTCS
METAR KTCS 280953Z AUTO 36005KT 10SM CLR 12/02 A3010 RMK AO2 SLP129
T01220022 TSNO





000
SAUS45 KABQ 280954
MTRCQC
METAR KCQC 280953Z AUTO 11006KT 10SM CLR M01/M05 A3021 RMK AO2
SLP182 T10061050





000
SAUS45 KABQ 280954
MTRCQC
METAR KCQC 280953Z AUTO 11006KT 10SM CLR M01/M05 A3021 RMK AO2
SLP182 T10061050





000
SAUS45 KABQ 280953
MTRABQ
METAR KABQ 280952Z 01004KT 10SM SCT080 12/M03 A3016 RMK AO2 SLP154
T01171033





000
SAUS45 KABQ 280953
MTRABQ
METAR KABQ 280952Z 01004KT 10SM SCT080 12/M03 A3016 RMK AO2 SLP154
T01171033





000
SAUS45 KABQ 280854
MTRCQC
METAR KCQC 280853Z AUTO 10007KT 10SM CLR 01/M04 A3022 RMK AO2 SLP178
T00111044 53007





000
SAUS45 KABQ 280854
MTRTCS
METAR KTCS 280853Z AUTO 06006KT 10SM CLR 13/02 A3010 RMK AO2 SLP129
T01280022 53014 TSNO





000
SAUS45 KABQ 280853
MTRABQ
METAR KABQ 280852Z 07014KT 10SM FEW150 12/01 A3015 RMK AO2 SLP149
T01170006 51010





000
SAUS45 KABQ 280755
MTRCQC
METAR KCQC 280753Z AUTO 08014G19KT 10SM CLR 03/M01 A3020 RMK AO2
SLP168 T00331011





000
SAUS45 KABQ 280755
MTRTCS
METAR KTCS 280753Z AUTO 31006KT 10SM CLR 14/02 A3008 RMK AO2 SLP123
T01390017 TSNO





000
SAUS45 KABQ 280753
MTRABQ
METAR KABQ 280752Z 09016KT 10SM CLR 12/01 A3014 RMK AO2 SLP148
T01170006





000
SAUS45 KABQ 280654
MTRCQC
METAR KCQC 280653Z AUTO 08007KT 10SM CLR 04/00 A3020 RMK AO2 SLP166
T00440000 401940044





000
SAUS45 KABQ 280654
MTRTCS
METAR KTCS 280653Z AUTO 32007KT 10SM CLR 14/02 A3007 RMK AO2 SLP120
T01440022 402500139 TSNO





000
SAUS45 KABQ 280653
MTRABQ
METAR KABQ 280652Z 11003KT 10SM CLR 11/M01 A3012 RMK AO2 SLP146
T01111011 402330106





000
SAUS45 KABQ 280559 COR
MTRCQC
METAR KCQC 280553Z AUTO 08012KT 10SM CLR 06/01 A3019 RMK AO2 WSHFT
0449 SLP167 T00560011 10161 20056 53024





000
SAUS45 KABQ 280556 COR
MTRCQC
METAR KCQC 280553Z AUTO 08012KT 10SM CLR 06/01 A3019 RMK AO2 WSHFT
0449 SLP167 T00560011 10161 20056 53024





000
SAUS45 KABQ 280555 COR
MTRCQC
METAR KCQC 280553Z AUTO 08012KT 10SM CLR 06/01 A3019 RMK AO2 WSHFT
0449 SLP167 T00560011 10161 20056 53024





000
SAUS45 KABQ 280554
MTRTCS
METAR KTCS 280553Z AUTO 31007KT 10SM CLR 16/03 A3006 RMK AO2 SLP114
T01560033 10239 20156 51019 TSNO





000
SAUS45 KABQ 280554
MTRCQC
METAR KCQC 280553Z AUTO 08012KT 10SM CLR 06/01 A3019 RMK AO2 WSHFT
0449 SLP167 T00560011 10161 20056 53024





000
SAUS45 KABQ 280553
MTRABQ
METAR KABQ 280552Z 11005KT 10SM CLR 12/M01 A3011 RMK AO2 SLP144
T01171011 10222 20111 53021





000
SAUS45 KABQ 280510
MTRCQC
SPECI KCQC 280509Z AUTO 08011KT 10SM CLR 06/01 A3017 RMK AO2 WSHFT
0449 T00610006





000
SAUS45 KABQ 280454
MTRTCS
METAR KTCS 280453Z AUTO 31007KT 10SM CLR 16/03 A3004 RMK AO2 SLP111
T01560033 TSNO





000
SAUS45 KABQ 280454
MTRCQC
METAR KCQC 280453Z AUTO 08011G18KT 10SM CLR 08/M03 A3016 RMK AO2
SLP153 T00781028





000
SAUS45 KABQ 280454
MTRTCS
METAR KTCS 280453Z AUTO 31007KT 10SM CLR 16/03 A3004 RMK AO2 SLP111
T01560033 TSNO





000
SAUS45 KABQ 280454
MTRCQC
METAR KCQC 280453Z AUTO 08011G18KT 10SM CLR 08/M03 A3016 RMK AO2
SLP153 T00781028





000
SAUS45 KABQ 280453
MTRABQ
METAR KABQ 280452Z 30007KT 10SM CLR 14/M02 A3009 RMK AO2 SLP129
T01441017





000
SAUS45 KABQ 280453
MTRABQ
METAR KABQ 280452Z 30007KT 10SM CLR 14/M02 A3009 RMK AO2 SLP129
T01441017





000
SAUS45 KABQ 280354
MTRTCS
METAR KTCS 280353Z AUTO 16003KT 10SM CLR 17/03 A3002 RMK AO2 SLP103
T01670028 TSNO





000
SAUS45 KABQ 280354
MTRCQC
METAR KCQC 280353Z AUTO 30008KT 10SM CLR 09/M04 A3012 RMK AO2 SLP135
T00891039





000
SAUS45 KABQ 280354
MTRCQC
METAR KCQC 280353Z AUTO 30008KT 10SM CLR 09/M04 A3012 RMK AO2 SLP135
T00891039





000
SAUS45 KABQ 280353
MTRABQ
METAR KABQ 280352Z 32005KT 10SM CLR 16/M02 A3006 RMK AO2 SLP121
T01611022





000
SAUS45 KABQ 280353
MTRABQ
METAR KABQ 280352Z 32005KT 10SM CLR 16/M02 A3006 RMK AO2 SLP121
T01611022





000
SAUS45 KABQ 280254
MTRCQC
METAR KCQC 280253Z AUTO 30007KT 10SM CLR 09/M04 A3010 RMK AO2 SLP136
T00891039 51028





000
SAUS45 KABQ 280254
MTRTCS
METAR KTCS 280253Z AUTO 26007KT 10SM CLR 18/03 A2999 RMK AO2 SLP091
T01780028 51023 TSNO





000
SAUS45 KABQ 280253
MTRABQ
METAR KABQ 280252Z 35007KT 10SM CLR 17/M02 A3004 RMK AO2 SLP113
T01721017 51026





000
SAUS45 KABQ 280154
MTRCQC
METAR KCQC 280153Z AUTO 31009KT 10SM CLR 11/M03 A3007 RMK AO2 SLP122
T01111033





000
SAUS45 KABQ 280154
MTRTCS
METAR KTCS 280153Z AUTO 24008KT 10SM CLR 19/03 A2997 RMK AO2 SLP080
T01940028 TSNO





000
SAUS45 KABQ 280154
MTRCQC
METAR KCQC 280153Z AUTO 31009KT 10SM CLR 11/M03 A3007 RMK AO2 SLP122
T01111033





000
SAUS45 KABQ 280154
MTRTCS
METAR KTCS 280153Z AUTO 24008KT 10SM CLR 19/03 A2997 RMK AO2 SLP080
T01940028 TSNO





000
SAUS45 KABQ 280153
MTRABQ
METAR KABQ 280152Z 01006KT 10SM CLR 19/M01 A3002 RMK AO2 SLP102
T01891011





000
SAUS45 KABQ 280153
MTRABQ
METAR KABQ 280152Z 01006KT 10SM CLR 19/M01 A3002 RMK AO2 SLP102
T01891011





000
SAUS45 KABQ 280054
MTRCQC
METAR KCQC 280053Z AUTO 30009KT 10SM CLR 13/M03 A3004 RMK AO2 SLP107
T01281033





000
SAUS45 KABQ 280054
MTRTCS
METAR KTCS 280053Z AUTO 24011KT 10SM CLR 22/01 A2994 RMK AO2 SLP065
T02170011 TSNO





000
SAUS45 KABQ 280053
MTRABQ
METAR KABQ 280052Z 35008KT 10SM FEW100 20/M01 A2999 RMK AO2 SLP089
T02001011





000
SAUS45 KABQ 280004 COR
MTRCQC
METAR KCQC 272353Z AUTO 30014G24KT 10SM CLR 16/M04 A3000 RMK AO2 PK
WND 27029/2308 SLP081 T01611039 10194 20144 53002





000
SAUS45 KABQ 280003 COR
MTRCQC
METAR KCQC 272353Z AUTO 30014G24KT 10SM CLR 16/M04 A3000 RMK AO2 PK
WND 27029/2308 SLP081 T01611039 10194 20144 53002





000
SAUS45 KABQ 280001 COR
MTRCQC
METAR KCQC 272353Z AUTO 30014G24KT 10SM CLR 16/M04 A3000 RMK AO2 PK
WND 27029/2308 SLP081 T01611039 10194 20144 53002





000
SAUS45 KABQ 280000 COR
MTRCQC
METAR KCQC 272353Z AUTO 30014G24KT 10SM CLR 16/M04 A3000 RMK AO2 PK
WND 27029/2308 SLP081 T01611039 10194 20144 53002





000
SAUS45 KABQ 272359 COR
MTRCQC
METAR KCQC 272353Z AUTO 30014G24KT 10SM CLR 16/M04 A3000 RMK AO2 PK
WND 27029/2308 SLP081 T01611039 10194 20144 53002





000
SAUS45 KABQ 272356 COR
MTRCQC
METAR KCQC 272353Z AUTO 30014G24KT 10SM CLR 16/M04 A3000 RMK AO2 PK
WND 27029/2308 SLP081 T01611039 10194 20144 53002





000
SAUS45 KABQ 272355 COR
MTRCQC
METAR KCQC 272353Z AUTO 30014G24KT 10SM CLR 16/M04 A3000 RMK AO2 PK
WND 27029/2308 SLP081 T01611039 10194 20144 53002





000
SAUS45 KABQ 272354
MTRTCS
METAR KTCS 272353Z AUTO 21005KT 10SM CLR 24/03 A2991 RMK AO2 SLP053
T02390028 10250 20200 55002 TSNO





000
SAUS45 KABQ 272354
MTRCQC
METAR KCQC 272353Z AUTO 30014G24KT 10SM CLR 16/M04 A3000 RMK AO2 PK
WND 27029/2308 SLP081 T01611039 10194 20144 53002





000
SAUS45 KABQ 272352
MTRABQ
METAR KABQ 272352Z 33012KT 10SM FEW090 FEW240 22/M03 A2995 RMK AO2
WSHFT 2332 SLP071 T02221028 10233 20183 53002





    US Dept of Commerce
    National Oceanic and Atmospheric Administration
    National Weather Service
    1325 East West Highway
    Silver Spring, MD 20910
    Page Author: NWS Internet Services Team
Disclaimer
Information Quality
Credits
Glossary
Privacy Policy
Freedom of Information Act (FOIA)
About Us
Career Opportunities